Time;durP1;ratioP1;P1;durP2;ratioP2;P2;SDS_P1;SDS_P2;PMS_P1;PMS_P2;Temp;Humidity;BMP_temperature;BMP_pressure;BME280_temperature;BME280_humidity;BME280_pressure;Samples;Min_cycle;Max_cycle;Signal;HPM_P1;HPM_P2
2021/08/28 17:58:37;;;;;;;;;11.75;8.00;;;;;23.99;46.44;101236.59;6113169;22;1365803;-83
2021/08/28 18:01:03;;;;;;;;;12.75;12.50;;;;;24.07;46.57;101258.50;6308878;22;47899;-81
2021/08/28 18:03:28;;;;;;;;;17.25;14.25;;;;;24.05;46.36;101255.00;6282912;22;45277;-81
2021/08/28 18:05:54;;;;;;;;;18.25;13.00;;;;;24.00;46.60;101241.00;6283653;22;45407;-81
2021/08/28 18:08:20;;;;;;;;;15.75;12.25;;;;;24.01;46.53;101248.94;6286762;22;45243;-82
2021/08/28 18:10:46;;;;;;;;;12.50;10.25;;;;;24.07;45.86;101255.84;6289503;22;47620;-81
2021/08/28 18:13:11;;;;;;;;;12.00;10.00;;;;;24.03;46.00;101252.41;6289540;22;45689;-80
2021/08/28 18:15:36;;;;;;;;;12.25;11.00;;;;;24.03;45.97;101255.06;6257447;22;45175;-80
2021/08/28 18:18:07;;;;;;;;;18.25;10.50;;;;;23.99;45.68;101255.25;6283240;22;45419;-81
2021/08/28 18:20:33;;;;;;;;;12.25;9.75;;;;;23.97;46.22;101257.94;6309189;22;46040;-81
2021/08/28 18:22:58;;;;;;;;;9.25;8.75;;;;;23.99;45.52;101263.25;6310886;22;45223;-81
2021/08/28 18:25:24;;;;;;;;;15.50;11.50;;;;;23.99;45.88;101266.78;6308992;22;45282;-81
2021/08/28 18:27:49;;;;;;;;;11.00;11.00;;;;;23.97;45.47;101261.50;6282055;22;45397;-81
2021/08/28 18:30:17;;;;;;;;;11.75;10.50;;;;;24.00;45.84;101275.66;6256843;22;47251;-81
2021/08/28 18:32:46;;;;;;;;;13.50;12.75;;;;;23.99;46.30;101266.78;6283152;22;45244;-82
2021/08/28 18:35:14;;;;;;;;;13.00;11.25;;;;;23.96;46.14;101265.09;6283128;22;45294;-82
2021/08/28 18:37:40;;;;;;;;;13.25;12.00;;;;;24.01;45.48;101278.25;6283611;22;45229;-84
2021/08/28 18:40:11;;;;;;;;;12.00;10.00;;;;;24.00;45.93;101281.00;6257918;22;48298;-87
2021/08/28 18:42:37;;;;;;;;;18.00;14.50;;;;;24.03;46.19;101280.88;6258150;22;45257;-83
2021/08/28 18:45:02;;;;;;;;;13.75;13.00;;;;;24.02;46.15;101284.47;6283661;22;45410;-84
2021/08/28 18:47:35;;;;;;;;;10.75;8.75;;;;;24.00;45.81;101286.31;6309186;22;45359;-92
2021/08/28 18:50:04;;;;;;;;;13.75;10.50;;;;;24.00;46.53;101291.66;6256508;22;47818;-80
2021/08/28 18:52:48;;;;;;;;;14.50;11.00;;;;;23.94;46.34;101282.06;6282527;22;45270;-78
2021/08/28 18:55:16;;;;;;;;;12.50;9.25;;;;;23.95;45.86;101287.34;6286319;22;45350;-79
2021/08/28 19:01:04;;;;;;;;;12.00;8.00;;;;;23.95;45.01;101307.81;6241869;22;46306;-79
2021/08/28 19:03:43;;;;;;;;;;;;;;;;;;;;;
2021/08/28 19:06:33;;;;;;;;;10.75;8.00;;;;;23.93;45.23;101309.66;6224438;22;67453;-82
2021/08/28 19:12:45;;;;;;;;;;;;;;;;;;;;;
2021/08/28 19:15:34;;;;;;;;;8.00;7.00;;;;;23.82;44.43;101307.41;6260125;22;72348;-83
2021/08/28 19:18:36;;;;;;;;;12.25;9.50;;;;;23.92;44.42;101330.13;6283765;22;45188;-81
2021/08/28 19:21:36;;;;;;;;;6.75;6.75;;;;;23.84;44.63;101312.69;6200129;22;45794;-82
2021/08/28 19:24:35;;;;;;;;;;;;;;;;;;;;;
2021/08/28 19:27:01;;;;;;;;;8.50;6.75;;;;;23.81;44.46;101311.00;6214228;22;73384;-81
2021/08/28 19:29:27;;;;;;;;;7.50;7.50;;;;;23.94;44.67;101335.41;6224629;22;45273;-82
2021/08/28 19:31:54;;;;;;;;;10.50;8.25;;;;;23.92;44.69;101330.13;6224709;22;45253;-81
2021/08/28 19:34:19;;;;;;;;;12.00;7.75;;;;;23.92;44.65;101330.13;6225225;22;48036;-81
2021/08/28 19:36:50;;;;;;;;;13.50;9.00;;;;;23.92;44.01;101337.25;6225053;22;45192;-80
2021/08/28 19:39:15;;;;;;;;;7.00;7.00;;;;;23.88;44.09;101339.16;6225637;22;45283;-81
2021/08/28 19:41:41;;;;;;;;;6.50;6.50;;;;;23.90;44.49;101333.78;6224970;22;45365;-81
2021/08/28 19:44:06;;;;;;;;;5.75;5.00;;;;;23.87;43.83;101337.41;6277514;22;50537;-82
2021/08/28 19:46:32;;;;;;;;;4.50;4.50;;;;;23.86;44.16;101345.47;6250788;22;62194;-81
2021/08/28 19:49:12;;;;;;;;;9.50;6.50;;;;;23.88;44.11;101336.47;6250744;22;45190;-83
2021/08/28 19:51:38;;;;;;;;;5.25;5.25;;;;;23.81;44.62;101327.00;6226917;22;46130;-81
2021/08/28 19:54:14;;;;;;;;;;;;;;;;;;;;;
2021/08/28 19:56:43;;;;;;;;;10.75;7.75;;;;;23.89;44.22;101332.91;6254122;22;74308;-80
2021/08/28 19:59:08;;;;;;;;;11.00;8.00;;;;;23.83;44.53;101321.59;6279186;22;45452;-79
2021/08/28 20:01:34;;;;;;;;;6.50;6.50;;;;;23.90;43.97;101336.47;6257373;22;45547;-81
2021/08/28 20:04:09;;;;;;;;;9.00;6.00;;;;;23.93;44.26;101347.00;6293483;22;46832;-81
2021/08/28 20:06:58;;;;;;;;;9.75;7.50;;;;;23.87;44.53;101336.53;6282726;22;45259;-80
2021/08/28 20:09:26;;;;;;;;;7.25;7.25;;;;;23.86;44.25;101332.16;6307206;22;45748;-80
2021/08/28 20:19:37;;;;;;;;;6.50;6.50;;;;;23.87;44.82;101348.06;6283716;22;46142;-84
2021/08/28 20:22:06;;;;;;;;;12.50;8.50;;;;;23.82;45.35;101339.41;6311409;22;45494;-83
2021/08/28 20:24:33;;;;;;;;;8.75;7.75;;;;;23.79;45.51;101338.63;6281009;22;45296;-83
2021/08/28 20:26:59;;;;;;;;;10.50;10.25;;;;;23.91;45.35;101356.84;6280858;22;45296;-81
2021/08/28 20:29:24;;;;;;;;;12.25;8.25;;;;;23.84;45.81;101339.34;6279592;22;45217;-83
2021/08/28 20:31:50;;;;;;;;;9.50;9.00;;;;;23.88;45.76;101351.59;6255249;22;45230;-84
2021/08/28 20:34:18;;;;;;;;;10.00;9.00;;;;;23.87;45.96;101334.75;6279961;22;45248;-86
2021/08/28 20:36:52;;;;;;;;;9.50;8.75;;;;;23.94;45.91;101346.06;6280816;22;47088;-85
2021/08/28 20:39:31;;;;;;;;;12.00;10.00;;;;;23.82;45.88;101328.72;6279810;22;45505;-80
2021/08/28 20:41:56;;;;;;;;;9.25;7.75;;;;;23.87;46.49;101355.22;6308217;22;45336;-81
2021/08/28 20:44:22;;;;;;;;;8.00;7.50;;;;;23.90;46.17;101355.13;6254378;22;45328;-78
2021/08/28 20:46:54;;;;;;;;;9.00;8.00;;;;;23.84;46.25;101344.66;6306684;22;45470;-81
2021/08/28 20:49:38;;;;;;;;;;;;;;;;;;;;;
2021/08/28 20:52:07;;;;;;;;;9.25;8.25;;;;;23.79;46.13;101326.16;6284519;22;67256;-82
2021/08/28 20:55:15;;;;;;;;;8.75;7.75;;;;;23.79;46.22;101325.28;6279082;22;45578;-79
2021/08/28 20:57:36;;;;;;;;;9.00;9.00;;;;;23.88;45.99;101349.81;6304477;22;45879;-80
2021/08/28 21:00:26;;;;;;;;;9.50;9.25;;;;;23.78;45.92;101336.88;6281393;22;45336;-79
2021/08/28 21:02:53;;;;;;;;;11.00;8.25;;;;;23.80;46.28;101343.03;6283713;22;45248;-78
2021/08/28 21:05:19;;;;;;;;;10.50;8.75;;;;;23.76;46.57;101334.28;6281701;22;45402;-79
2021/08/28 21:07:51;;;;;;;;;10.25;7.75;;;;;23.86;46.43;101357.00;6281010;22;46733;-77
2021/08/28 21:10:37;;;;;;;;;6.50;6.00;;;;;23.80;46.61;101343.88;6308772;22;45548;-80
2021/08/28 21:13:26;;;;;;;;;8.50;8.00;;;;;23.80;46.75;101349.22;6254812;22;45728;-78
2021/08/28 21:16:00;;;;;;;;;7.50;6.00;;;;;23.77;46.43;101346.69;6283557;22;45545;-78
2021/08/28 21:18:40;;;;;;;;;10.00;10.00;;;;;23.88;46.10;101362.28;6256023;22;48124;-78
2021/08/28 21:21:06;;;;;;;;;7.00;7.00;;;;;23.88;46.69;101367.59;6307976;22;45195;-78
2021/08/28 21:23:34;;;;;;;;;6.00;6.00;;;;;23.89;46.26;101366.69;6307811;22;45534;-78
2021/08/28 21:26:00;;;;;;;;;8.25;8.25;;;;;23.79;46.17;101347.47;6282577;22;45410;-78
2021/08/28 21:28:25;;;;;;;;;11.00;9.25;;;;;23.90;46.34;101371.13;6333370;22;47412;-78
2021/08/28 21:30:51;;;;;;;;;12.75;10.00;;;;;23.84;46.65;101358.00;6308467;22;60086;-76
2021/08/28 21:33:16;;;;;;;;;6.50;5.25;;;;;23.91;46.67;101370.19;6310143;22;62498;-78
2021/08/28 21:35:41;;;;;;;;;10.25;9.25;;;;;23.92;46.41;101382.59;6282924;22;45504;-77
2021/08/28 21:38:10;;;;;;;;;8.50;8.00;;;;;23.92;46.24;101375.47;6309829;22;65362;-77
2021/08/28 21:40:37;;;;;;;;;8.00;8.00;;;;;23.92;46.34;101375.47;6309227;22;45238;-78
2021/08/28 21:43:02;;;;;;;;;8.50;7.25;;;;;23.86;46.59;101365.00;6309027;22;45286;-77
2021/08/28 21:45:28;;;;;;;;;9.25;8.50;;;;;23.90;46.17;101384.44;6308271;22;58659;-78
2021/08/28 21:47:53;;;;;;;;;6.50;5.75;;;;;23.90;46.82;101377.31;6289974;22;47756;-78
2021/08/28 21:50:19;;;;;;;;;10.00;8.75;;;;;23.89;46.53;101380.00;6293387;22;45297;-75
2021/08/28 21:52:44;;;;;;;;;7.00;7.00;;;;;23.91;46.92;101386.19;6282866;22;62025;-76
2021/08/28 21:55:09;;;;;;;;;6.75;6.75;;;;;23.92;46.31;101387.91;6283251;22;46299;-76
2021/08/28 21:57:35;;;;;;;;;7.75;7.50;;;;;23.90;47.01;101371.13;6309033;22;45577;-78
2021/08/28 22:00:00;;;;;;;;;9.00;6.00;;;;;23.88;46.35;101373.81;6308512;22;47691;-78
2021/08/28 22:02:26;;;;;;;;;8.50;7.50;;;;;23.88;46.70;101380.94;6282829;22;45197;-77
2021/08/28 22:04:51;;;;;;;;;7.75;7.00;;;;;23.89;46.48;101377.34;6308695;22;60753;-77
2021/08/28 22:07:17;;;;;;;;;10.00;8.00;;;;;23.87;46.85;101380.06;6310489;22;45858;-78
2021/08/28 22:09:42;;;;;;;;;7.00;6.25;;;;;23.86;46.86;101381.00;6283184;22;45182;-78
2021/08/28 22:12:11;;;;;;;;;13.75;9.00;;;;;23.86;47.09;101377.47;6282743;22;45672;-78
2021/08/28 22:14:36;;;;;;;;;8.00;7.25;;;;;23.83;47.18;101374.91;6307434;22;45345;-78
2021/08/28 22:17:02;;;;;;;;;8.50;6.75;;;;;23.83;46.88;101373.13;6282624;22;56898;-78
2021/08/28 22:19:27;;;;;;;;;10.75;8.25;;;;;23.83;46.86;101378.44;6282805;22;45309;-78
2021/08/28 22:21:52;;;;;;;;;8.25;7.25;;;;;23.85;46.82;101381.06;6282987;22;45204;-78
2021/08/28 22:24:18;;;;;;;;;8.25;7.50;;;;;23.79;46.74;101375.94;6310868;22;45507;-78
2021/08/28 22:26:43;;;;;;;;;10.75;7.50;;;;;23.82;46.95;101382.03;6308205;22;68077;-77
2021/08/28 22:29:09;;;;;;;;;7.00;6.00;;;;;23.81;46.61;101385.66;6310099;22;46120;-78
2021/08/28 22:31:34;;;;;;;;;6.75;6.75;;;;;23.81;46.85;101387.44;6282367;22;57481;-78
2021/08/28 22:33:59;;;;;;;;;8.00;7.75;;;;;23.79;47.19;101387.47;6281688;22;59945;-78
2021/08/28 22:36:25;;;;;;;;;9.25;7.25;;;;;23.79;47.04;101376.81;6307516;22;72127;-77
2021/08/28 22:38:50;;;;;;;;;11.50;9.00;;;;;23.78;46.92;101376.88;6308005;22;64607;-77
2021/08/28 22:41:21;;;;;;;;;9.25;9.25;;;;;23.80;47.30;101383.88;6283201;22;46209;-78
2021/08/28 22:43:55;;;;;;;;;9.00;8.50;;;;;23.80;47.05;101386.53;6282569;22;45299;-78
2021/08/28 22:46:20;;;;;;;;;8.00;8.00;;;;;23.76;46.95;101381.38;6285135;22;45229;-78
2021/08/28 22:48:46;;;;;;;;;9.00;7.00;;;;;23.76;46.36;101386.72;6309101;22;45184;-78
2021/08/28 22:51:11;;;;;;;;;6.00;6.00;;;;;23.76;46.65;101384.06;6283132;22;45232;-78
2021/08/28 22:53:36;;;;;;;;;7.00;6.00;;;;;23.69;46.94;101378.06;6282819;22;45243;-78
2021/08/28 22:56:31;;;;;;;;;9.25;7.50;;;;;23.74;46.60;101381.44;6282238;22;47998;-78
2021/08/28 22:58:57;;;;;;;;;11.00;8.25;;;;;23.74;46.63;101388.56;6289991;22;45223;-78
2021/08/28 23:01:22;;;;;;;;;8.50;7.50;;;;;23.72;46.79;101396.63;6308056;22;58119;-78
2021/08/28 23:03:47;;;;;;;;;9.00;7.00;;;;;23.70;46.84;101382.47;6310134;22;52535;-78
2021/08/28 23:06:13;;;;;;;;;6.50;6.50;;;;;23.68;47.08;101379.00;6281259;22;73934;-78
2021/08/28 23:08:38;;;;;;;;;10.00;7.00;;;;;23.72;46.85;101388.63;6282887;22;45399;-78
2021/08/28 23:11:04;;;;;;;;;11.75;8.25;;;;;23.74;46.68;101391.25;6283066;22;45396;-78
2021/08/28 23:13:29;;;;;;;;;8.25;7.25;;;;;23.71;46.67;101391.31;6307745;22;61689;-78
2021/08/28 23:15:54;;;;;;;;;11.00;10.50;;;;;23.71;46.73;101389.53;6282856;22;45377;-78
2021/08/28 23:18:23;;;;;;;;;7.50;6.25;;;;;23.71;46.81;101396.66;6308935;22;45298;-78
2021/08/28 23:20:48;;;;;;;;;8.25;7.00;;;;;23.69;46.68;101391.38;6255808;22;53079;-78
2021/08/28 23:23:14;;;;;;;;;8.25;6.00;;;;;23.67;46.89;101386.13;6282985;22;45182;-78
2021/08/28 23:25:39;;;;;;;;;6.75;4.50;;;;;23.71;46.79;101396.66;6282805;22;45270;-78
2021/08/28 23:28:05;;;;;;;;;6.00;6.00;;;;;23.68;46.51;101394.97;6308810;22;45259;-78
2021/08/28 23:30:33;;;;;;;;;6.25;6.00;;;;;23.67;46.79;101393.25;6283122;22;45192;-78
2021/08/28 23:32:58;;;;;;;;;7.50;7.25;;;;;23.64;46.63;101388.91;6282596;22;45365;-78
2021/08/28 23:35:24;;;;;;;;;7.75;6.75;;;;;23.64;46.78;101398.69;6282092;22;54609;-78
2021/08/28 23:37:49;;;;;;;;;8.25;8.25;;;;;23.60;46.66;101386.38;6283012;22;45303;-78
2021/08/28 23:40:14;;;;;;;;;7.50;7.50;;;;;23.63;46.92;101407.56;6282516;22;45464;-78
2021/08/28 23:42:40;;;;;;;;;10.50;8.50;;;;;23.60;46.96;101394.38;6282029;22;45585;-78
2021/08/28 23:45:06;;;;;;;;;9.50;7.50;;;;;23.60;47.22;101399.69;6256549;22;48010;-78
2021/08/28 23:47:31;;;;;;;;;7.25;6.75;;;;;23.59;47.31;101396.16;6282554;22;45213;-78
2021/08/28 23:49:57;;;;;;;;;9.00;9.00;;;;;23.60;46.79;101399.69;6308094;22;60810;-78
2021/08/28 23:52:22;;;;;;;;;9.50;7.25;;;;;23.58;47.05;101394.41;6308071;22;54695;-78
2021/08/28 23:54:47;;;;;;;;;9.75;9.00;;;;;23.55;46.91;101393.66;6280603;22;67908;-78
2021/08/28 23:57:16;;;;;;;;;8.50;6.75;;;;;23.54;46.94;101392.75;6282017;22;48051;-78
2021/08/28 23:59:41;;;;;;;;;7.00;5.00;;;;;23.55;46.94;101383.84;6307778;22;45175;-78
